sensor_id;sensor_type;location;lat;lon;timestamp;P1;durP1;ratioP1;P2;durP2;ratioP2
24617;SDS011;12762;51.730;5.356;2023-05-15T00:00:11;29.97;;;18.77;;
24617;SDS011;12762;51.730;5.356;2023-05-15T00:02:38;32.83;;;19.30;;
24617;SDS011;12762;51.730;5.356;2023-05-15T00:05:06;30.93;;;19.07;;
24617;SDS011;12762;51.730;5.356;2023-05-15T00:07:34;30.57;;;19.87;;
24617;SDS011;12762;51.730;5.356;2023-05-15T00:10:01;28.33;;;17.40;;
24617;SDS011;12762;51.730;5.356;2023-05-15T00:12:28;28.43;;;19.27;;
24617;SDS011;12762;51.730;5.356;2023-05-15T00:14:55;35.17;;;22.20;;
24617;SDS011;12762;51.730;5.356;2023-05-15T00:17:22;35.17;;;21.60;;
24617;SDS011;12762;51.730;5.356;2023-05-15T00:19:49;37.23;;;23.37;;
24617;SDS011;12762;51.730;5.356;2023-05-15T00:22:16;35.77;;;22.27;;
24617;SDS011;12762;51.730;5.356;2023-05-15T00:24:42;34.40;;;21.77;;
24617;SDS011;12762;51.730;5.356;2023-05-15T00:27:09;37.03;;;21.97;;
24617;SDS011;12762;51.730;5.356;2023-05-15T00:29:36;36.40;;;22.63;;
24617;SDS011;12762;51.730;5.356;2023-05-15T00:32:03;36.23;;;23.17;;
24617;SDS011;12762;51.730;5.356;2023-05-15T00:34:33;36.63;;;21.70;;
24617;SDS011;12762;51.730;5.356;2023-05-15T00:37:00;38.37;;;23.87;;
24617;SDS011;12762;51.730;5.356;2023-05-15T00:39:26;36.47;;;23.00;;
24617;SDS011;12762;51.730;5.356;2023-05-15T00:41:53;35.50;;;22.13;;
24617;SDS011;12762;51.730;5.356;2023-05-15T00:44:21;38.00;;;22.93;;
24617;SDS011;12762;51.730;5.356;2023-05-15T00:46:48;39.47;;;23.67;;
24617;SDS011;12762;51.730;5.356;2023-05-15T00:49:17;36.90;;;23.53;;
24617;SDS011;12762;51.730;5.356;2023-05-15T00:51:45;39.67;;;23.83;;
24617;SDS011;12762;51.730;5.356;2023-05-15T00:54:12;37.00;;;23.23;;
24617;SDS011;12762;51.730;5.356;2023-05-15T00:56:39;39.90;;;22.50;;
24617;SDS011;12762;51.730;5.356;2023-05-15T00:59:08;35.13;;;22.90;;
24617;SDS011;12762;51.730;5.356;2023-05-15T01:01:36;34.50;;;22.60;;
24617;SDS011;12762;51.730;5.356;2023-05-15T01:04:03;40.40;;;24.63;;
24617;SDS011;12762;51.730;5.356;2023-05-15T01:06:30;40.10;;;25.27;;
24617;SDS011;12762;51.730;5.356;2023-05-15T01:08:58;39.90;;;24.87;;
24617;SDS011;12762;51.730;5.356;2023-05-15T01:11:29;40.83;;;25.03;;
24617;SDS011;12762;51.730;5.356;2023-05-15T01:14:04;39.50;;;24.60;;
24617;SDS011;12762;51.730;5.356;2023-05-15T01:16:32;39.50;;;23.37;;
24617;SDS011;12762;51.730;5.356;2023-05-15T01:19:00;41.53;;;25.30;;
24617;SDS011;12762;51.730;5.356;2023-05-15T01:32:19;40.17;;;24.07;;
24617;SDS011;12762;51.730;5.356;2023-05-15T01:37:41;40.67;;;24.33;;
24617;SDS011;12762;51.730;5.356;2023-05-15T01:40:16;41.63;;;23.70;;
24617;SDS011;12762;51.730;5.356;2023-05-15T01:42:50;37.90;;;23.23;;
24617;SDS011;12762;51.730;5.356;2023-05-15T01:45:22;43.53;;;25.90;;
24617;SDS011;12762;51.730;5.356;2023-05-15T01:47:51;42.33;;;25.83;;
24617;SDS011;12762;51.730;5.356;2023-05-15T01:50:19;37.90;;;23.67;;
24617;SDS011;12762;51.730;5.356;2023-05-15T01:52:48;40.70;;;23.40;;
24617;SDS011;12762;51.730;5.356;2023-05-15T01:55:19;41.27;;;24.97;;
24617;SDS011;12762;51.730;5.356;2023-05-15T01:57:49;38.30;;;23.03;;
24617;SDS011;12762;51.730;5.356;2023-05-15T02:00:17;44.20;;;24.43;;
24617;SDS011;12762;51.730;5.356;2023-05-15T02:02:44;45.33;;;25.57;;
24617;SDS011;12762;51.730;5.356;2023-05-15T02:05:13;43.57;;;25.00;;
24617;SDS011;12762;51.730;5.356;2023-05-15T02:07:43;45.70;;;25.17;;
24617;SDS011;12762;51.730;5.356;2023-05-15T02:10:11;44.87;;;25.67;;
24617;SDS011;12762;51.730;5.356;2023-05-15T02:12:39;51.87;;;26.17;;
24617;SDS011;12762;51.730;5.356;2023-05-15T02:15:08;42.57;;;26.63;;
24617;SDS011;12762;51.730;5.356;2023-05-15T02:17:36;47.83;;;26.63;;
24617;SDS011;12762;51.730;5.356;2023-05-15T02:20:03;46.37;;;26.37;;
24617;SDS011;12762;51.730;5.356;2023-05-15T02:22:33;52.10;;;27.30;;
24617;SDS011;12762;51.730;5.356;2023-05-15T02:25:01;50.20;;;27.63;;
24617;SDS011;12762;51.730;5.356;2023-05-15T02:27:32;50.73;;;27.97;;
24617;SDS011;12762;51.730;5.356;2023-05-15T02:30:27;52.90;;;28.93;;
24617;SDS011;12762;51.730;5.356;2023-05-15T02:33:22;55.57;;;29.73;;
24617;SDS011;12762;51.730;5.356;2023-05-15T02:36:12;50.90;;;27.40;;
24617;SDS011;12762;51.730;5.356;2023-05-15T02:38:46;54.17;;;29.07;;
24617;SDS011;12762;51.730;5.356;2023-05-15T02:41:15;52.23;;;29.87;;
24617;SDS011;12762;51.730;5.356;2023-05-15T02:43:42;55.37;;;29.43;;
24617;SDS011;12762;51.730;5.356;2023-05-15T02:46:11;56.30;;;30.17;;
24617;SDS011;12762;51.730;5.356;2023-05-15T02:48:40;62.70;;;30.80;;
24617;SDS011;12762;51.730;5.356;2023-05-15T02:51:09;60.03;;;31.27;;
24617;SDS011;12762;51.730;5.356;2023-05-15T02:53:39;61.07;;;29.73;;
24617;SDS011;12762;51.730;5.356;2023-05-15T02:56:07;62.73;;;29.57;;
24617;SDS011;12762;51.730;5.356;2023-05-15T02:58:34;69.33;;;30.50;;
24617;SDS011;12762;51.730;5.356;2023-05-15T03:01:02;62.47;;;29.40;;
24617;SDS011;12762;51.730;5.356;2023-05-15T03:03:29;57.40;;;28.17;;
24617;SDS011;12762;51.730;5.356;2023-05-15T03:05:59;63.53;;;29.87;;
24617;SDS011;12762;51.730;5.356;2023-05-15T03:08:26;60.47;;;28.80;;
24617;SDS011;12762;51.730;5.356;2023-05-15T03:10:53;62.63;;;29.90;;
24617;SDS011;12762;51.730;5.356;2023-05-15T03:13:19;62.93;;;28.90;;
24617;SDS011;12762;51.730;5.356;2023-05-15T03:15:49;62.30;;;30.30;;
24617;SDS011;12762;51.730;5.356;2023-05-15T03:18:15;56.33;;;27.80;;
24617;SDS011;12762;51.730;5.356;2023-05-15T03:20:48;62.73;;;29.60;;
24617;SDS011;12762;51.730;5.356;2023-05-15T03:23:17;60.40;;;29.17;;
24617;SDS011;12762;51.730;5.356;2023-05-15T03:25:44;59.97;;;29.57;;
24617;SDS011;12762;51.730;5.356;2023-05-15T03:28:14;65.37;;;29.50;;
24617;SDS011;12762;51.730;5.356;2023-05-15T03:30:44;62.17;;;29.37;;
24617;SDS011;12762;51.730;5.356;2023-05-15T03:33:11;65.17;;;30.33;;
24617;SDS011;12762;51.730;5.356;2023-05-15T03:35:37;59.97;;;29.53;;
24617;SDS011;12762;51.730;5.356;2023-05-15T03:38:04;59.27;;;29.07;;
24617;SDS011;12762;51.730;5.356;2023-05-15T03:40:31;63.83;;;29.03;;
24617;SDS011;12762;51.730;5.356;2023-05-15T03:42:58;58.23;;;27.80;;
24617;SDS011;12762;51.730;5.356;2023-05-15T03:45:25;61.60;;;29.17;;
24617;SDS011;12762;51.730;5.356;2023-05-15T03:47:52;67.50;;;30.07;;
24617;SDS011;12762;51.730;5.356;2023-05-15T03:50:19;63.37;;;29.27;;
24617;SDS011;12762;51.730;5.356;2023-05-15T03:52:46;69.53;;;30.23;;
24617;SDS011;12762;51.730;5.356;2023-05-15T03:55:13;65.80;;;29.43;;
24617;SDS011;12762;51.730;5.356;2023-05-15T03:57:40;69.37;;;31.20;;
24617;SDS011;12762;51.730;5.356;2023-05-15T04:00:07;66.17;;;30.27;;
24617;SDS011;12762;51.730;5.356;2023-05-15T04:02:36;61.47;;;28.33;;
24617;SDS011;12762;51.730;5.356;2023-05-15T04:05:03;65.10;;;29.50;;
24617;SDS011;12762;51.730;5.356;2023-05-15T04:07:31;60.27;;;29.70;;
24617;SDS011;12762;51.730;5.356;2023-05-15T04:09:59;66.43;;;29.33;;
24617;SDS011;12762;51.730;5.356;2023-05-15T04:12:30;72.17;;;30.07;;
24617;SDS011;12762;51.730;5.356;2023-05-15T04:15:15;63.03;;;30.07;;
24617;SDS011;12762;51.730;5.356;2023-05-15T04:17:47;69.77;;;32.60;;
24617;SDS011;12762;51.730;5.356;2023-05-15T04:20:16;64.60;;;30.90;;
24617;SDS011;12762;51.730;5.356;2023-05-15T04:22:45;66.97;;;30.27;;
24617;SDS011;12762;51.730;5.356;2023-05-15T04:25:13;62.77;;;30.10;;
24617;SDS011;12762;51.730;5.356;2023-05-15T04:27:40;62.93;;;29.80;;
24617;SDS011;12762;51.730;5.356;2023-05-15T04:30:09;53.13;;;29.33;;
24617;SDS011;12762;51.730;5.356;2023-05-15T04:32:37;52.37;;;27.73;;
24617;SDS011;12762;51.730;5.356;2023-05-15T04:35:06;51.27;;;26.53;;
24617;SDS011;12762;51.730;5.356;2023-05-15T04:37:35;52.83;;;27.30;;
24617;SDS011;12762;51.730;5.356;2023-05-15T04:40:03;49.60;;;25.90;;
24617;SDS011;12762;51.730;5.356;2023-05-15T04:42:33;53.50;;;27.10;;
24617;SDS011;12762;51.730;5.356;2023-05-15T04:45:04;51.10;;;25.20;;
24617;SDS011;12762;51.730;5.356;2023-05-15T04:47:32;54.90;;;25.43;;
24617;SDS011;12762;51.730;5.356;2023-05-15T04:49:59;51.87;;;25.03;;
24617;SDS011;12762;51.730;5.356;2023-05-15T04:52:26;54.03;;;25.90;;
24617;SDS011;12762;51.730;5.356;2023-05-15T04:54:53;51.20;;;26.07;;
24617;SDS011;12762;51.730;5.356;2023-05-15T04:57:21;56.07;;;26.53;;
24617;SDS011;12762;51.730;5.356;2023-05-15T04:59:48;53.23;;;26.70;;
24617;SDS011;12762;51.730;5.356;2023-05-15T05:02:15;54.07;;;26.80;;
24617;SDS011;12762;51.730;5.356;2023-05-15T05:04:45;47.07;;;25.30;;
24617;SDS011;12762;51.730;5.356;2023-05-15T05:07:12;47.77;;;25.77;;
24617;SDS011;12762;51.730;5.356;2023-05-15T05:09:38;46.10;;;24.77;;
24617;SDS011;12762;51.730;5.356;2023-05-15T05:12:08;49.07;;;26.60;;
24617;SDS011;12762;51.730;5.356;2023-05-15T05:14:35;47.10;;;25.33;;
24617;SDS011;12762;51.730;5.356;2023-05-15T05:17:02;51.50;;;26.33;;
24617;SDS011;12762;51.730;5.356;2023-05-15T05:19:29;49.60;;;25.73;;
24617;SDS011;12762;51.730;5.356;2023-05-15T05:21:56;48.00;;;25.50;;
24617;SDS011;12762;51.730;5.356;2023-05-15T05:24:26;50.27;;;26.33;;
24617;SDS011;12762;51.730;5.356;2023-05-15T05:26:53;44.73;;;25.20;;
24617;SDS011;12762;51.730;5.356;2023-05-15T05:29:23;45.70;;;25.33;;
24617;SDS011;12762;51.730;5.356;2023-05-15T05:31:50;45.90;;;25.87;;
24617;SDS011;12762;51.730;5.356;2023-05-15T05:34:18;43.53;;;24.67;;
24617;SDS011;12762;51.730;5.356;2023-05-15T05:36:45;46.10;;;25.43;;
24617;SDS011;12762;51.730;5.356;2023-05-15T05:39:11;43.53;;;25.13;;
24617;SDS011;12762;51.730;5.356;2023-05-15T05:41:38;42.43;;;23.93;;
24617;SDS011;12762;51.730;5.356;2023-05-15T05:44:08;44.87;;;24.93;;
24617;SDS011;12762;51.730;5.356;2023-05-15T05:46:35;42.27;;;25.03;;
24617;SDS011;12762;51.730;5.356;2023-05-15T05:49:02;40.37;;;23.60;;
24617;SDS011;12762;51.730;5.356;2023-05-15T05:51:29;37.13;;;23.23;;
24617;SDS011;12762;51.730;5.356;2023-05-15T05:53:56;40.73;;;25.20;;
24617;SDS011;12762;51.730;5.356;2023-05-15T05:56:23;38.90;;;24.80;;
24617;SDS011;12762;51.730;5.356;2023-05-15T05:58:51;39.67;;;25.17;;
24617;SDS011;12762;51.730;5.356;2023-05-15T06:01:19;44.47;;;25.47;;
24617;SDS011;12762;51.730;5.356;2023-05-15T06:03:46;41.40;;;25.70;;
24617;SDS011;12762;51.730;5.356;2023-05-15T06:06:13;45.60;;;28.20;;
24617;SDS011;12762;51.730;5.356;2023-05-15T06:08:40;44.37;;;26.37;;
24617;SDS011;12762;51.730;5.356;2023-05-15T06:11:07;44.43;;;27.50;;
24617;SDS011;12762;51.730;5.356;2023-05-15T06:13:33;45.23;;;27.77;;
24617;SDS011;12762;51.730;5.356;2023-05-15T06:16:01;41.87;;;27.23;;
24617;SDS011;12762;51.730;5.356;2023-05-15T06:18:27;44.90;;;26.37;;
24617;SDS011;12762;51.730;5.356;2023-05-15T06:20:54;42.73;;;27.47;;
24617;SDS011;12762;51.730;5.356;2023-05-15T06:23:23;48.03;;;28.60;;
24617;SDS011;12762;51.730;5.356;2023-05-15T06:25:51;44.57;;;28.83;;
24617;SDS011;12762;51.730;5.356;2023-05-15T06:28:18;44.97;;;29.03;;
24617;SDS011;12762;51.730;5.356;2023-05-15T06:30:45;49.07;;;29.33;;
24617;SDS011;12762;51.730;5.356;2023-05-15T06:33:12;47.80;;;31.07;;
24617;SDS011;12762;51.730;5.356;2023-05-15T06:35:39;53.00;;;32.37;;
24617;SDS011;12762;51.730;5.356;2023-05-15T06:38:06;49.33;;;30.03;;
24617;SDS011;12762;51.730;5.356;2023-05-15T06:40:39;48.90;;;30.37;;
24617;SDS011;12762;51.730;5.356;2023-05-15T06:43:06;51.20;;;31.13;;
24617;SDS011;12762;51.730;5.356;2023-05-15T06:45:33;47.40;;;29.23;;
24617;SDS011;12762;51.730;5.356;2023-05-15T06:47:59;46.77;;;29.97;;
24617;SDS011;12762;51.730;5.356;2023-05-15T06:50:27;41.53;;;27.77;;
24617;SDS011;12762;51.730;5.356;2023-05-15T06:52:54;42.63;;;28.13;;
24617;SDS011;12762;51.730;5.356;2023-05-15T06:55:21;41.07;;;27.57;;
24617;SDS011;12762;51.730;5.356;2023-05-15T06:57:47;40.90;;;25.17;;
24617;SDS011;12762;51.730;5.356;2023-05-15T07:00:14;41.07;;;27.73;;
24617;SDS011;12762;51.730;5.356;2023-05-15T07:02:41;44.87;;;28.07;;
24617;SDS011;12762;51.730;5.356;2023-05-15T07:05:09;40.80;;;25.57;;
24617;SDS011;12762;51.730;5.356;2023-05-15T07:07:36;38.90;;;26.10;;
24617;SDS011;12762;51.730;5.356;2023-05-15T07:10:03;39.83;;;26.07;;
24617;SDS011;12762;51.730;5.356;2023-05-15T07:12:31;38.10;;;26.10;;
24617;SDS011;12762;51.730;5.356;2023-05-15T07:14:59;40.97;;;26.67;;
24617;SDS011;12762;51.730;5.356;2023-05-15T07:17:30;39.97;;;26.93;;
24617;SDS011;12762;51.730;5.356;2023-05-15T07:19:58;41.10;;;26.93;;
24617;SDS011;12762;51.730;5.356;2023-05-15T07:22:28;41.77;;;27.50;;
24617;SDS011;12762;51.730;5.356;2023-05-15T07:24:57;40.17;;;26.37;;
24617;SDS011;12762;51.730;5.356;2023-05-15T07:27:24;39.70;;;26.73;;
24617;SDS011;12762;51.730;5.356;2023-05-15T07:29:52;36.77;;;25.87;;
24617;SDS011;12762;51.730;5.356;2023-05-15T07:32:19;39.93;;;25.87;;
24617;SDS011;12762;51.730;5.356;2023-05-15T07:34:46;33.93;;;24.40;;
24617;SDS011;12762;51.730;5.356;2023-05-15T07:37:13;35.23;;;24.93;;
24617;SDS011;12762;51.730;5.356;2023-05-15T07:39:42;36.20;;;24.63;;
24617;SDS011;12762;51.730;5.356;2023-05-15T07:42:09;40.87;;;25.03;;
24617;SDS011;12762;51.730;5.356;2023-05-15T07:44:36;35.83;;;26.17;;
24617;SDS011;12762;51.730;5.356;2023-05-15T07:47:02;35.33;;;23.90;;
24617;SDS011;12762;51.730;5.356;2023-05-15T07:49:29;34.13;;;23.73;;
24617;SDS011;12762;51.730;5.356;2023-05-15T07:51:56;33.77;;;23.70;;
24617;SDS011;12762;51.730;5.356;2023-05-15T07:54:26;35.50;;;23.73;;
24617;SDS011;12762;51.730;5.356;2023-05-15T07:56:55;32.50;;;22.87;;
24617;SDS011;12762;51.730;5.356;2023-05-15T07:59:22;31.43;;;21.23;;
24617;SDS011;12762;51.730;5.356;2023-05-15T08:01:50;31.80;;;21.60;;
24617;SDS011;12762;51.730;5.356;2023-05-15T08:04:16;31.40;;;22.63;;
24617;SDS011;12762;51.730;5.356;2023-05-15T08:06:43;34.00;;;22.77;;
24617;SDS011;12762;51.730;5.356;2023-05-15T08:09:10;33.07;;;21.90;;
24617;SDS011;12762;51.730;5.356;2023-05-15T08:11:38;31.13;;;21.33;;
24617;SDS011;12762;51.730;5.356;2023-05-15T08:14:05;27.40;;;20.03;;
24617;SDS011;12762;51.730;5.356;2023-05-15T08:16:32;32.03;;;20.57;;
24617;SDS011;12762;51.730;5.356;2023-05-15T08:18:59;30.67;;;19.57;;
24617;SDS011;12762;51.730;5.356;2023-05-15T08:21:30;25.07;;;19.60;;
24617;SDS011;12762;51.730;5.356;2023-05-15T08:23:58;25.67;;;17.47;;
24617;SDS011;12762;51.730;5.356;2023-05-15T08:26:25;25.33;;;18.37;;
24617;SDS011;12762;51.730;5.356;2023-05-15T08:28:56;26.13;;;18.17;;
24617;SDS011;12762;51.730;5.356;2023-05-15T08:31:22;23.47;;;17.97;;
24617;SDS011;12762;51.730;5.356;2023-05-15T08:33:49;25.17;;;18.13;;
24617;SDS011;12762;51.730;5.356;2023-05-15T08:36:16;24.17;;;17.33;;
24617;SDS011;12762;51.730;5.356;2023-05-15T08:38:45;27.53;;;19.37;;
24617;SDS011;12762;51.730;5.356;2023-05-15T08:41:15;22.67;;;17.93;;
24617;SDS011;12762;51.730;5.356;2023-05-15T08:44:05;27.83;;;18.27;;
24617;SDS011;12762;51.730;5.356;2023-05-15T08:46:34;24.47;;;17.30;;
24617;SDS011;12762;51.730;5.356;2023-05-15T08:49:08;27.47;;;18.57;;
24617;SDS011;12762;51.730;5.356;2023-05-15T08:51:41;22.43;;;17.03;;
24617;SDS011;12762;51.730;5.356;2023-05-15T08:54:08;25.23;;;17.40;;
24617;SDS011;12762;51.730;5.356;2023-05-15T08:56:36;25.17;;;17.20;;
24617;SDS011;12762;51.730;5.356;2023-05-15T08:59:04;21.00;;;16.20;;
24617;SDS011;12762;51.730;5.356;2023-05-15T09:01:31;22.23;;;16.47;;
24617;SDS011;12762;51.730;5.356;2023-05-15T09:03:59;23.50;;;17.57;;
24617;SDS011;12762;51.730;5.356;2023-05-15T09:06:26;23.00;;;15.90;;
24617;SDS011;12762;51.730;5.356;2023-05-15T09:08:54;23.67;;;15.73;;
24617;SDS011;12762;51.730;5.356;2023-05-15T09:11:25;26.23;;;17.30;;
24617;SDS011;12762;51.730;5.356;2023-05-15T09:13:55;23.90;;;17.17;;
24617;SDS011;12762;51.730;5.356;2023-05-15T09:16:26;24.03;;;16.27;;
24617;SDS011;12762;51.730;5.356;2023-05-15T09:18:53;24.20;;;17.27;;
24617;SDS011;12762;51.730;5.356;2023-05-15T09:21:20;24.20;;;17.40;;
24617;SDS011;12762;51.730;5.356;2023-05-15T09:23:50;22.90;;;16.90;;
24617;SDS011;12762;51.730;5.356;2023-05-15T09:26:17;23.97;;;16.93;;
24617;SDS011;12762;51.730;5.356;2023-05-15T09:28:44;24.93;;;16.87;;
24617;SDS011;12762;51.730;5.356;2023-05-15T09:31:11;24.63;;;17.23;;
24617;SDS011;12762;51.730;5.356;2023-05-15T09:33:39;21.80;;;16.57;;
24617;SDS011;12762;51.730;5.356;2023-05-15T09:36:08;24.73;;;17.47;;
24617;SDS011;12762;51.730;5.356;2023-05-15T09:38:39;26.50;;;17.23;;
24617;SDS011;12762;51.730;5.356;2023-05-15T09:41:13;25.97;;;18.43;;
24617;SDS011;12762;51.730;5.356;2023-05-15T09:43:49;26.40;;;18.07;;
24617;SDS011;12762;51.730;5.356;2023-05-15T09:46:19;25.43;;;17.47;;
24617;SDS011;12762;51.730;5.356;2023-05-15T09:48:53;24.73;;;17.67;;
24617;SDS011;12762;51.730;5.356;2023-05-15T09:51:20;25.10;;;18.77;;
24617;SDS011;12762;51.730;5.356;2023-05-15T09:53:48;24.40;;;16.97;;
24617;SDS011;12762;51.730;5.356;2023-05-15T09:56:16;26.17;;;17.23;;
24617;SDS011;12762;51.730;5.356;2023-05-15T09:58:53;26.70;;;18.27;;
24617;SDS011;12762;51.730;5.356;2023-05-15T10:01:22;27.13;;;18.53;;
24617;SDS011;12762;51.730;5.356;2023-05-15T10:03:56;26.97;;;17.77;;
24617;SDS011;12762;51.730;5.356;2023-05-15T10:06:24;27.77;;;18.93;;
24617;SDS011;12762;51.730;5.356;2023-05-15T10:08:52;23.43;;;17.33;;
24617;SDS011;12762;51.730;5.356;2023-05-15T10:11:20;26.20;;;18.00;;
24617;SDS011;12762;51.730;5.356;2023-05-15T10:13:52;27.73;;;16.90;;
24617;SDS011;12762;51.730;5.356;2023-05-15T10:16:19;25.07;;;18.03;;
24617;SDS011;12762;51.730;5.356;2023-05-15T10:18:47;22.07;;;16.27;;
24617;SDS011;12762;51.730;5.356;2023-05-15T10:21:18;25.17;;;17.23;;
24617;SDS011;12762;51.730;5.356;2023-05-15T10:23:49;26.10;;;18.47;;
24617;SDS011;12762;51.730;5.356;2023-05-15T10:26:37;28.33;;;17.70;;
24617;SDS011;12762;51.730;5.356;2023-05-15T10:29:13;26.93;;;18.70;;
24617;SDS011;12762;51.730;5.356;2023-05-15T10:31:43;28.67;;;18.50;;
24617;SDS011;12762;51.730;5.356;2023-05-15T10:34:11;26.60;;;18.33;;
24617;SDS011;12762;51.730;5.356;2023-05-15T10:36:39;27.60;;;19.43;;
24617;SDS011;12762;51.730;5.356;2023-05-15T10:39:08;26.30;;;18.10;;
24617;SDS011;12762;51.730;5.356;2023-05-15T10:41:35;26.73;;;18.60;;
24617;SDS011;12762;51.730;5.356;2023-05-15T10:44:03;28.57;;;17.80;;
24617;SDS011;12762;51.730;5.356;2023-05-15T10:46:31;25.17;;;17.63;;
24617;SDS011;12762;51.730;5.356;2023-05-15T10:49:00;26.63;;;18.30;;
24617;SDS011;12762;51.730;5.356;2023-05-15T10:51:28;27.40;;;18.80;;
24617;SDS011;12762;51.730;5.356;2023-05-15T10:53:57;29.67;;;19.77;;
24617;SDS011;12762;51.730;5.356;2023-05-15T10:56:29;28.53;;;19.60;;
24617;SDS011;12762;51.730;5.356;2023-05-15T10:58:59;28.73;;;19.67;;
24617;SDS011;12762;51.730;5.356;2023-05-15T11:01:34;33.77;;;19.93;;
24617;SDS011;12762;51.730;5.356;2023-05-15T11:04:12;31.37;;;21.23;;
24617;SDS011;12762;51.730;5.356;2023-05-15T11:06:42;31.37;;;18.93;;
24617;SDS011;12762;51.730;5.356;2023-05-15T11:09:31;36.03;;;21.43;;
24617;SDS011;12762;51.730;5.356;2023-05-15T11:12:00;34.47;;;20.87;;
24617;SDS011;12762;51.730;5.356;2023-05-15T11:14:33;31.87;;;20.47;;
24617;SDS011;12762;51.730;5.356;2023-05-15T11:17:02;35.70;;;20.93;;
24617;SDS011;12762;51.730;5.356;2023-05-15T11:19:31;34.40;;;21.80;;
24617;SDS011;12762;51.730;5.356;2023-05-15T11:22:00;35.10;;;21.53;;
24617;SDS011;12762;51.730;5.356;2023-05-15T11:27:38;32.50;;;21.20;;
24617;SDS011;12762;51.730;5.356;2023-05-15T11:30:15;35.80;;;22.53;;
24617;SDS011;12762;51.730;5.356;2023-05-15T11:38:16;35.93;;;22.97;;
24617;SDS011;12762;51.730;5.356;2023-05-15T11:40:53;35.13;;;22.23;;
24617;SDS011;12762;51.730;5.356;2023-05-15T11:43:25;31.23;;;20.93;;
24617;SDS011;12762;51.730;5.356;2023-05-15T11:46:06;39.63;;;24.47;;
24617;SDS011;12762;51.730;5.356;2023-05-15T11:48:38;36.00;;;23.43;;
24617;SDS011;12762;51.730;5.356;2023-05-15T11:51:15;44.30;;;25.30;;
24617;SDS011;12762;51.730;5.356;2023-05-15T11:53:44;45.57;;;25.30;;
24617;SDS011;12762;51.730;5.356;2023-05-15T11:56:22;49.70;;;27.57;;
24617;SDS011;12762;51.730;5.356;2023-05-15T11:58:54;47.60;;;27.23;;
24617;SDS011;12762;51.730;5.356;2023-05-15T12:01:22;44.67;;;26.97;;
24617;SDS011;12762;51.730;5.356;2023-05-15T12:03:49;48.13;;;28.23;;
24617;SDS011;12762;51.730;5.356;2023-05-15T12:06:17;50.27;;;28.70;;
24617;SDS011;12762;51.730;5.356;2023-05-15T12:08:49;45.87;;;26.93;;
24617;SDS011;12762;51.730;5.356;2023-05-15T12:11:22;45.47;;;26.27;;
24617;SDS011;12762;51.730;5.356;2023-05-15T12:13:53;47.13;;;28.27;;
24617;SDS011;12762;51.730;5.356;2023-05-15T12:16:26;49.33;;;28.67;;
24617;SDS011;12762;51.730;5.356;2023-05-15T12:19:03;45.17;;;27.30;;
24617;SDS011;12762;51.730;5.356;2023-05-15T12:21:31;53.97;;;30.97;;
24617;SDS011;12762;51.730;5.356;2023-05-15T12:24:00;48.67;;;29.07;;
24617;SDS011;12762;51.730;5.356;2023-05-15T12:26:30;48.57;;;28.07;;
24617;SDS011;12762;51.730;5.356;2023-05-15T12:28:57;54.10;;;29.87;;
24617;SDS011;12762;51.730;5.356;2023-05-15T12:31:24;54.67;;;29.73;;
24617;SDS011;12762;51.730;5.356;2023-05-15T12:33:52;52.30;;;29.10;;
24617;SDS011;12762;51.730;5.356;2023-05-15T12:36:20;53.77;;;29.60;;
24617;SDS011;12762;51.730;5.356;2023-05-15T12:38:47;57.63;;;30.77;;
24617;SDS011;12762;51.730;5.356;2023-05-15T12:41:14;54.00;;;29.57;;
24617;SDS011;12762;51.730;5.356;2023-05-15T12:43:41;52.77;;;29.63;;
24617;SDS011;12762;51.730;5.356;2023-05-15T12:46:08;53.77;;;29.37;;
24617;SDS011;12762;51.730;5.356;2023-05-15T12:48:40;49.33;;;28.20;;
24617;SDS011;12762;51.730;5.356;2023-05-15T12:51:07;49.93;;;28.27;;
24617;SDS011;12762;51.730;5.356;2023-05-15T12:53:34;45.97;;;27.20;;
24617;SDS011;12762;51.730;5.356;2023-05-15T12:56:05;50.67;;;28.23;;
24617;SDS011;12762;51.730;5.356;2023-05-15T12:58:32;47.40;;;27.70;;
24617;SDS011;12762;51.730;5.356;2023-05-15T13:00:59;50.33;;;28.73;;
24617;SDS011;12762;51.730;5.356;2023-05-15T13:03:29;46.50;;;27.30;;
24617;SDS011;12762;51.730;5.356;2023-05-15T13:05:57;45.67;;;26.77;;
24617;SDS011;12762;51.730;5.356;2023-05-15T13:08:24;44.03;;;24.27;;
24617;SDS011;12762;51.730;5.356;2023-05-15T13:10:55;43.43;;;25.27;;
24617;SDS011;12762;51.730;5.356;2023-05-15T13:13:23;38.97;;;23.63;;
24617;SDS011;12762;51.730;5.356;2023-05-15T13:15:49;38.60;;;23.97;;
24617;SDS011;12762;51.730;5.356;2023-05-15T13:18:18;37.83;;;23.00;;
24617;SDS011;12762;51.730;5.356;2023-05-15T13:20:46;33.77;;;21.23;;
24617;SDS011;12762;51.730;5.356;2023-05-15T13:23:16;30.37;;;19.73;;
24617;SDS011;12762;51.730;5.356;2023-05-15T13:25:45;27.43;;;17.87;;
24617;SDS011;12762;51.730;5.356;2023-05-15T13:28:15;25.83;;;16.37;;
24617;SDS011;12762;51.730;5.356;2023-05-15T13:30:42;24.87;;;15.23;;
24617;SDS011;12762;51.730;5.356;2023-05-15T13:33:09;23.83;;;15.67;;
24617;SDS011;12762;51.730;5.356;2023-05-15T13:35:38;22.03;;;13.67;;
24617;SDS011;12762;51.730;5.356;2023-05-15T13:38:06;19.90;;;12.57;;
24617;SDS011;12762;51.730;5.356;2023-05-15T13:40:36;15.73;;;10.20;;
24617;SDS011;12762;51.730;5.356;2023-05-15T13:43:04;14.40;;;9.77;;
24617;SDS011;12762;51.730;5.356;2023-05-15T13:45:33;12.33;;;7.33;;
24617;SDS011;12762;51.730;5.356;2023-05-15T13:48:02;10.53;;;7.10;;
24617;SDS011;12762;51.730;5.356;2023-05-15T13:50:29;12.97;;;7.00;;
24617;SDS011;12762;51.730;5.356;2023-05-15T13:52:56;11.13;;;6.67;;
24617;SDS011;12762;51.730;5.356;2023-05-15T13:55:23;12.53;;;7.47;;
24617;SDS011;12762;51.730;5.356;2023-05-15T13:57:59;15.33;;;7.50;;
24617;SDS011;12762;51.730;5.356;2023-05-15T14:00:26;13.40;;;7.63;;
24617;SDS011;12762;51.730;5.356;2023-05-15T14:02:53;15.13;;;7.63;;
24617;SDS011;12762;51.730;5.356;2023-05-15T14:05:20;16.13;;;7.53;;
24617;SDS011;12762;51.730;5.356;2023-05-15T14:07:47;16.90;;;7.67;;
24617;SDS011;12762;51.730;5.356;2023-05-15T14:10:14;15.93;;;8.13;;
24617;SDS011;12762;51.730;5.356;2023-05-15T14:12:41;15.47;;;7.43;;
24617;SDS011;12762;51.730;5.356;2023-05-15T14:15:08;12.73;;;7.67;;
24617;SDS011;12762;51.730;5.356;2023-05-15T14:17:37;14.63;;;7.83;;
24617;SDS011;12762;51.730;5.356;2023-05-15T14:20:05;12.97;;;7.93;;
24617;SDS011;12762;51.730;5.356;2023-05-15T14:22:32;11.57;;;6.97;;
24617;SDS011;12762;51.730;5.356;2023-05-15T14:24:59;10.37;;;6.57;;
24617;SDS011;12762;51.730;5.356;2023-05-15T14:27:27;10.37;;;5.80;;
24617;SDS011;12762;51.730;5.356;2023-05-15T14:29:56;10.03;;;5.90;;
24617;SDS011;12762;51.730;5.356;2023-05-15T14:32:23;9.30;;;5.37;;
24617;SDS011;12762;51.730;5.356;2023-05-15T14:34:50;10.80;;;5.13;;
24617;SDS011;12762;51.730;5.356;2023-05-15T14:37:17;8.60;;;4.73;;
24617;SDS011;12762;51.730;5.356;2023-05-15T14:39:44;11.57;;;4.93;;
24617;SDS011;12762;51.730;5.356;2023-05-15T14:42:11;10.73;;;4.93;;
24617;SDS011;12762;51.730;5.356;2023-05-15T14:44:38;10.10;;;4.83;;
24617;SDS011;12762;51.730;5.356;2023-05-15T14:47:09;8.80;;;4.60;;
24617;SDS011;12762;51.730;5.356;2023-05-15T14:49:38;10.13;;;4.70;;
24617;SDS011;12762;51.730;5.356;2023-05-15T14:52:06;11.30;;;4.17;;
24617;SDS011;12762;51.730;5.356;2023-05-15T14:54:34;9.63;;;4.30;;